createdAt,value
2019-02-08T00:02:00.909Z,100273.42
2019-02-08T00:05:06.508Z,100280.11
2019-02-08T00:08:10.819Z,100278.50
2019-02-08T00:11:15.627Z,100282.02
2019-02-08T00:14:19.922Z,100282.78
2019-02-08T00:17:24.204Z,100286.84
2019-02-08T00:20:28.879Z,100283.09
2019-02-08T00:23:33.255Z,100289.75
2019-02-08T00:26:37.955Z,100285.38
2019-02-08T00:29:42.520Z,100288.31
2019-02-08T00:32:47.010Z,100293.67
2019-02-08T00:35:51.321Z,100299.80
2019-02-08T00:38:55.796Z,100301.56
2019-02-08T00:42:00.076Z,100304.61
2019-02-08T00:45:05.317Z,100312.05
2019-02-08T00:48:10.016Z,100316.27
2019-02-08T00:51:14.305Z,100310.05
2019-02-08T00:54:18.789Z,100316.14
2019-02-08T00:57:23.463Z,100317.12
2019-02-08T01:00:27.854Z,100318.84
2019-02-08T01:03:32.270Z,100319.79
2019-02-08T01:06:36.901Z,100334.94
2019-02-08T01:09:41.167Z,100308.13
2019-02-08T01:12:45.476Z,100316.65
2019-02-08T01:15:50.118Z,100321.73
2019-02-08T01:18:54.399Z,100320.63
2019-02-08T01:21:58.744Z,100323.53
2019-02-08T01:25:03.130Z,100334.44
2019-02-08T01:28:08.380Z,100335.12
2019-02-08T01:31:13.337Z,100354.97
2019-02-08T01:34:18.389Z,100357.36
2019-02-08T01:37:22.754Z,100352.33
2019-02-08T01:40:32.092Z,100348.05
2019-02-08T01:43:36.378Z,100355.22
2019-02-08T01:46:40.668Z,100332.16
2019-02-08T01:49:44.999Z,100356.72
2019-02-08T01:52:49.696Z,100349.83
2019-02-08T01:55:53.983Z,100357.80
2019-02-08T01:58:58.260Z,100356.38
2019-02-08T02:02:02.640Z,100364.78
2019-02-08T02:05:09.276Z,100359.01
2019-02-08T02:08:13.667Z,100352.33
2019-02-08T02:11:18.194Z,100356.38
2019-02-08T02:14:22.587Z,100367.22
2019-02-08T02:17:26.873Z,100375.43
2019-02-08T02:20:37.024Z,100376.92
2019-02-08T02:23:41.293Z,100377.83
2019-02-08T02:26:45.563Z,100379.91
2019-02-08T02:29:50.055Z,100379.13
2019-02-08T02:32:54.349Z,100386.56
2019-02-08T02:35:58.623Z,100399.80
2019-02-08T02:39:02.911Z,100401.91
2019-02-08T02:42:07.283Z,100401.05
2019-02-08T02:45:23.415Z,100412.76
2019-02-08T02:48:27.757Z,100409.21
2019-02-08T02:51:32.068Z,100416.30
2019-02-08T02:54:36.342Z,100421.36
2019-02-08T02:57:40.902Z,100432.34
2019-02-08T03:00:47.605Z,100432.39
2019-02-08T03:03:51.913Z,100440.73
2019-02-08T03:06:56.203Z,100436.34
2019-02-08T03:10:00.493Z,100442.19
2019-02-08T03:13:06.901Z,100441.20
2019-02-08T03:16:11.185Z,100445.70
2019-02-08T03:19:15.469Z,100454.42
2019-02-08T03:22:19.750Z,100453.85
2019-02-08T03:25:25.669Z,100452.51
2019-02-08T03:28:29.959Z,100458.58
2019-02-08T03:31:34.491Z,100457.86
2019-02-08T03:34:38.730Z,100459.23
2019-02-08T03:37:43.019Z,100465.00
2019-02-08T03:40:47.313Z,100469.31
2019-02-08T03:43:51.615Z,100473.86
2019-02-08T03:46:56.062Z,100466.75
2019-02-08T03:50:01.426Z,100462.41
2019-02-08T03:53:06.473Z,100475.77
2019-02-08T03:56:10.735Z,100474.55
2019-02-08T03:59:15.331Z,100481.58
2019-02-08T04:02:19.612Z,100486.89
2019-02-08T04:05:24.098Z,100488.28
2019-02-08T04:08:30.630Z,100481.05
2019-02-08T04:11:34.914Z,100494.73
2019-02-08T04:14:39.246Z,100500.49
2019-02-08T04:17:43.501Z,100504.45
2019-02-08T04:20:47.873Z,100507.55
2019-02-08T04:23:52.362Z,100513.38
2019-02-08T04:26:56.636Z,100507.28
2019-02-08T04:30:00.936Z,100511.97
2019-02-08T04:33:05.607Z,100516.55
2019-02-08T04:36:10.022Z,100507.39
2019-02-08T04:39:16.933Z,100511.19
2019-02-08T04:42:24.231Z,100518.91
2019-02-08T04:45:28.575Z,100524.69
2019-02-08T04:48:32.882Z,100522.09
2019-02-08T04:51:37.176Z,100527.00
2019-02-08T04:54:41.460Z,100522.98
2019-02-08T04:57:45.949Z,100533.53
2019-02-08T05:00:50.235Z,100518.02
2019-02-08T05:03:54.552Z,100530.20
2019-02-08T05:06:58.799Z,100538.14
2019-02-08T05:10:03.094Z,100531.95
2019-02-08T05:13:07.378Z,100527.03
2019-02-08T05:16:14.534Z,100539.41
2019-02-08T05:19:18.847Z,100530.57
2019-02-08T05:22:23.136Z,100537.91
2019-02-08T05:25:27.755Z,100534.77
2019-02-08T05:28:32.040Z,100544.09
2019-02-08T05:31:36.369Z,100532.31
2019-02-08T05:34:40.656Z,100537.52
2019-02-08T05:37:44.929Z,100535.75
2019-02-08T05:40:49.577Z,100542.40
2019-02-08T05:43:53.879Z,100545.84
2019-02-08T05:46:58.158Z,100550.78
2019-02-08T05:50:02.596Z,100546.05
2019-02-08T05:53:07.197Z,100548.91
2019-02-08T05:56:11.503Z,100550.30
2019-02-08T05:59:15.801Z,100558.69
2019-02-08T06:02:20.069Z,100566.64
2019-02-08T06:05:24.766Z,100560.99
2019-02-08T06:08:29.034Z,100571.17
2019-02-08T06:11:33.334Z,100574.70
2019-02-08T06:14:37.665Z,100572.00
2019-02-08T06:17:42.020Z,100583.89
2019-02-08T06:20:46.490Z,100572.00
2019-02-08T06:23:50.753Z,100573.20
2019-02-08T06:26:55.025Z,100575.72
2019-02-08T06:29:59.322Z,100582.42
2019-02-08T06:33:03.724Z,100591.66
2019-02-08T06:36:08.014Z,100592.97
2019-02-08T06:39:13.950Z,100596.67
2019-02-08T06:42:18.367Z,100594.48
2019-02-08T06:45:24.144Z,100599.64
2019-02-08T06:48:28.512Z,100597.92
2019-02-08T06:51:32.909Z,100596.54
2019-02-08T06:54:37.307Z,100600.95
2019-02-08T06:58:18.866Z,100608.94
2019-02-08T07:01:40.001Z,100607.62
2019-02-08T07:04:51.093Z,100609.63
2019-02-08T07:08:26.469Z,100623.34
2019-02-08T07:11:52.768Z,100619.48
2019-02-08T07:15:28.241Z,100626.87
2019-02-08T07:18:51.477Z,100615.39
2019-02-08T07:22:20.652Z,100618.17
2019-02-08T07:25:46.949Z,100628.77
2019-02-08T07:29:13.260Z,100623.44
2019-02-08T07:32:30.861Z,100622.52
2019-02-08T07:35:57.718Z,100629.48
2019-02-08T07:39:27.220Z,100631.31
2019-02-08T07:42:56.838Z,100632.02
2019-02-08T07:46:12.418Z,100628.09
2019-02-08T07:49:45.363Z,100629.26
2019-02-08T07:53:05.642Z,100631.66
2019-02-08T07:56:21.120Z,100621.49
2019-02-08T07:59:33.587Z,100615.33
2019-02-08T08:02:51.024Z,100620.55
2019-02-08T08:06:13.610Z,100617.91
2019-02-08T08:09:39.971Z,100616.59
2019-02-08T08:13:07.911Z,100629.77
2019-02-08T08:16:35.893Z,100627.08
2019-02-08T08:20:06.601Z,100617.70
2019-02-08T08:23:30.007Z,100625.70
2019-02-08T08:26:55.823Z,100617.61
2019-02-08T08:30:16.943Z,100619.87
2019-02-08T08:33:38.398Z,100622.08
2019-02-08T08:37:24.804Z,100619.92
2019-02-08T08:41:17.950Z,100613.26
2019-02-08T08:44:53.618Z,100615.04
2019-02-08T08:48:45.166Z,100618.30
2019-02-08T08:52:29.539Z,100612.04
2019-02-08T08:55:58.586Z,100600.55
2019-02-08T08:59:29.222Z,100605.66
2019-02-08T09:03:35.925Z,100599.37
2019-02-08T09:07:24.068Z,100594.70
2019-02-08T09:11:20.395Z,100592.14
2019-02-08T09:15:08.615Z,100590.77
2019-02-08T09:19:00.478Z,100595.07
2019-02-08T09:22:47.421Z,100600.31
2019-02-08T09:26:18.507Z,100595.09
2019-02-08T09:30:18.514Z,100587.57
2019-02-08T09:34:31.171Z,100593.45
2019-02-08T09:38:18.201Z,100586.02
2019-02-08T09:42:12.990Z,100586.88
2019-02-08T09:45:54.853Z,100584.26
2019-02-08T09:49:44.634Z,100577.71
2019-02-08T09:53:39.302Z,100582.99
2019-02-08T09:57:36.583Z,100584.73
2019-02-08T10:01:23.151Z,100576.23
2019-02-08T10:05:05.824Z,100581.92
2019-02-08T10:08:58.216Z,100575.45
2019-02-08T10:12:55.444Z,100570.88
2019-02-08T10:17:03.893Z,100577.94
2019-02-08T10:20:39.274Z,100570.75
2019-02-08T10:24:21.368Z,100564.48
2019-02-08T10:28:15.836Z,100562.74
2019-02-08T10:31:57.744Z,100560.92
2019-02-08T10:35:37.763Z,100559.86
2019-02-08T10:39:37.138Z,100558.13
2019-02-08T10:43:31.528Z,100554.54
2019-02-08T10:47:01.817Z,100544.33
2019-02-08T10:50:32.842Z,100542.23
2019-02-08T10:54:24.500Z,100532.20
2019-02-08T10:58:20.529Z,100534.61
2019-02-08T11:02:00.615Z,100535.89
2019-02-08T11:06:00.059Z,100543.23
2019-02-08T11:09:42.893Z,100536.25
2019-02-08T11:13:26.779Z,100530.27
2019-02-08T11:17:27.113Z,100516.55
2019-02-08T11:20:31.583Z,100518.47
2019-02-08T11:23:36.960Z,100505.95
2019-02-08T11:26:41.273Z,100506.27
2019-02-08T11:29:45.623Z,100497.94
2019-02-08T11:32:49.955Z,100496.23
2019-02-08T11:35:54.415Z,100491.84
2019-02-08T11:38:58.696Z,100492.38
2019-02-08T11:42:02.999Z,100479.94
2019-02-08T11:45:08.242Z,100482.66
2019-02-08T11:48:12.542Z,100485.77
2019-02-08T11:51:16.942Z,100480.48
2019-02-08T11:54:21.245Z,100480.66
2019-02-08T11:57:25.593Z,100476.22
2019-02-08T12:00:37.187Z,100470.83
2019-02-08T12:03:41.492Z,100470.45
2019-02-08T12:06:45.802Z,100458.49
2019-02-08T12:09:50.198Z,100454.89
2019-02-08T12:12:54.629Z,100461.09
2019-02-08T12:15:59.024Z,100454.05
2019-02-08T12:19:03.335Z,100441.02
2019-02-08T12:22:07.650Z,100443.69
2019-02-08T12:25:12.516Z,100438.00
2019-02-08T12:28:16.950Z,100428.81
2019-02-08T12:31:21.567Z,100429.12
2019-02-08T12:34:25.892Z,100413.84
2019-02-08T12:37:30.315Z,100423.36
2019-02-08T12:40:34.731Z,100404.66
2019-02-08T12:43:39.153Z,100405.44
2019-02-08T12:46:43.792Z,100399.37
2019-02-08T12:49:51.233Z,100404.89
2019-02-08T12:52:55.503Z,100402.70
2019-02-08T12:55:59.936Z,100397.02
2019-02-08T12:59:04.554Z,100391.16
2019-02-08T13:02:08.946Z,100386.47
2019-02-08T13:05:15.877Z,100376.41
2019-02-08T13:08:20.292Z,100373.50
2019-02-08T13:11:28.992Z,100369.22
2019-02-08T13:14:33.278Z,100367.30
2019-02-08T13:17:37.581Z,100360.77
2019-02-08T13:20:42.102Z,100359.75
2019-02-08T13:23:48.569Z,100348.19
2019-02-08T13:26:53.204Z,100351.34
2019-02-08T13:29:57.936Z,100345.06
2019-02-08T13:33:02.647Z,100340.04
2019-02-08T13:36:13.104Z,100330.20
2019-02-08T13:39:20.678Z,100319.59
2019-02-08T13:42:27.336Z,100325.25
2019-02-08T13:45:31.391Z,100316.44
2019-02-08T13:48:37.139Z,100315.94
2019-02-08T13:51:41.695Z,100313.47
2019-02-08T13:54:45.986Z,100319.02
2019-02-08T13:57:53.476Z,100314.98
2019-02-08T14:00:57.765Z,100304.38
2019-02-08T14:04:02.180Z,100302.30
2019-02-08T14:07:09.496Z,100296.14
2019-02-08T14:10:15.411Z,100289.09
2019-02-08T14:13:19.684Z,100283.25
2019-02-08T14:16:24.025Z,100284.05
2019-02-08T14:19:28.321Z,100278.88
2019-02-08T14:22:35.408Z,100275.88
2019-02-08T14:25:39.718Z,100272.64
2019-02-08T14:28:44.007Z,100280.08
2019-02-08T14:31:48.317Z,100274.80
2019-02-08T14:34:52.666Z,100265.38
2019-02-08T14:37:57.734Z,100250.87
2019-02-08T14:41:02.114Z,100265.61
2019-02-08T14:44:06.621Z,100244.59
2019-02-08T14:47:11.164Z,100241.63
2019-02-08T14:50:18.521Z,100236.56
2019-02-08T14:53:22.852Z,100246.78
2019-02-08T14:56:27.160Z,100236.03
2019-02-08T14:59:31.523Z,100246.61
2019-02-08T15:02:36.032Z,100225.50
2019-02-08T15:05:40.544Z,100222.73
2019-02-08T15:08:44.955Z,100225.20
2019-02-08T15:11:49.272Z,100222.42
2019-02-08T15:14:53.569Z,100211.17
2019-02-08T15:17:58.004Z,100209.12
2019-02-08T15:21:02.478Z,100208.77
2019-02-08T15:24:10.117Z,100200.34
2019-02-08T15:27:14.436Z,100186.89
2019-02-08T15:30:21.653Z,100197.30
2019-02-08T15:33:25.959Z,100180.77
2019-02-08T15:36:30.242Z,100172.81
2019-02-08T15:39:39.454Z,100176.15
2019-02-08T15:42:47.360Z,100173.56
2019-02-08T15:45:54.848Z,100163.23
2019-02-08T15:48:59.227Z,100162.94
2019-02-08T15:52:03.513Z,100159.72
2019-02-08T15:55:10.770Z,100153.94
2019-02-08T15:58:15.052Z,100151.09
2019-02-08T16:01:19.616Z,100151.31
2019-02-08T16:04:23.995Z,100140.72
2019-02-08T16:07:28.385Z,100136.88
2019-02-08T16:10:32.804Z,100147.23
2019-02-08T16:13:37.226Z,100138.27
2019-02-08T16:16:41.617Z,100123.97
2019-02-08T16:19:46.009Z,100120.69
2019-02-08T16:22:50.877Z,100114.17
2019-02-08T16:25:55.290Z,100110.69
2019-02-08T16:28:59.584Z,100100.70
2019-02-08T16:32:03.913Z,100105.50
2019-02-08T16:35:09.484Z,100102.67
2019-02-08T16:38:13.806Z,100095.57
2019-02-08T16:41:18.138Z,100085.28
2019-02-08T16:44:22.434Z,100085.83
2019-02-08T16:47:26.718Z,100085.83
2019-02-08T16:50:33.290Z,100096.30
2019-02-08T16:53:37.588Z,100077.93
2019-02-08T16:56:41.901Z,100075.94
2019-02-08T16:59:46.317Z,100070.89
2019-02-08T17:02:50.804Z,100057.19
2019-02-08T17:05:58.135Z,100053.84
2019-02-08T17:09:02.457Z,100040.83
2019-02-08T17:12:06.943Z,100034.95
2019-02-08T17:15:14.070Z,100040.44
2019-02-08T17:18:18.338Z,100024.75
2019-02-08T17:21:22.647Z,100025.30
2019-02-08T17:24:26.962Z,100014.02
2019-02-08T17:27:31.254Z,100028.73
2019-02-08T17:30:35.857Z,100014.30
2019-02-08T17:33:40.259Z,100021.05
2019-02-08T17:36:44.625Z,100008.88
2019-02-08T17:39:49.022Z,100013.25
2019-02-08T17:42:53.310Z,100001.91
2019-02-08T17:45:57.604Z,99996.83
2019-02-08T17:49:01.909Z,99994.63
2019-02-08T17:52:06.258Z,99994.25
2019-02-08T17:55:12.294Z,99980.87
2019-02-08T17:58:16.724Z,99972.22
2019-02-08T18:01:21.146Z,99971.37
2019-02-08T18:04:25.901Z,99967.47
2019-02-08T18:07:30.402Z,99958.44
2019-02-08T18:10:36.910Z,99950.33
2019-02-08T18:13:41.275Z,99950.78
2019-02-08T18:16:45.571Z,99952.33
2019-02-08T18:19:49.898Z,99945.16
2019-02-08T18:22:54.500Z,99936.63
2019-02-08T18:25:58.803Z,99933.21
2019-02-08T18:29:03.200Z,99927.59
2019-02-08T18:32:07.504Z,99923.18
2019-02-08T18:35:12.062Z,99940.91
2019-02-08T18:38:16.568Z,99914.54
2019-02-08T18:41:20.973Z,99910.19
2019-02-08T18:44:25.465Z,99903.75
2019-02-08T18:47:29.732Z,99910.30
2019-02-08T18:50:45.870Z,99898.11
2019-02-08T18:53:52.604Z,99892.94
2019-02-08T18:56:56.902Z,99884.95
2019-02-08T19:00:01.208Z,99881.59
2019-02-08T19:03:06.101Z,99877.31
2019-02-08T19:06:10.505Z,99878.33
2019-02-08T19:09:14.786Z,99864.63
2019-02-08T19:12:19.306Z,99867.47
2019-02-08T19:15:24.373Z,99860.69
2019-02-08T19:18:28.710Z,99853.84
2019-02-08T19:21:36.060Z,99855.77
2019-02-08T19:24:40.577Z,99837.02
2019-02-08T19:27:44.945Z,99838.58
2019-02-08T19:30:49.436Z,99827.39
2019-02-08T19:33:53.815Z,99814.87
2019-02-08T19:37:00.228Z,99811.74
2019-02-08T19:40:06.413Z,99808.40
2019-02-08T19:43:11.042Z,99798.57
2019-02-08T19:46:15.641Z,99805.61
2019-02-08T19:49:20.132Z,99773.56
2019-02-08T19:52:24.793Z,99785.10
2019-02-08T19:55:29.672Z,99790.64
2019-02-08T19:58:34.912Z,99786.78
2019-02-08T20:01:39.738Z,99781.83
2019-02-08T20:04:44.370Z,99772.49
2019-02-08T20:07:48.987Z,99769.27
2019-02-08T20:10:53.481Z,99750.64
2019-02-08T20:13:58.031Z,99756.81
2019-02-08T20:17:02.505Z,99758.52
2019-02-08T20:20:08.675Z,99751.91
2019-02-08T20:23:13.427Z,99735.11
2019-02-08T20:26:18.064Z,99737.20
2019-02-08T20:29:22.899Z,99727.29
2019-02-08T20:32:27.846Z,99722.50
2019-02-08T20:35:32.472Z,99724.64
2019-02-08T20:38:39.874Z,99714.89
2019-02-08T20:41:44.536Z,99711.63
2019-02-08T20:44:49.072Z,99712.39
2019-02-08T20:47:54.537Z,99712.74
2019-02-08T20:50:59.198Z,99712.27
2019-02-08T20:54:04.173Z,99708.47
2019-02-08T20:57:09.147Z,99699.35
2019-02-08T21:00:28.072Z,99703.94
2019-02-08T21:03:32.847Z,99705.42
2019-02-08T21:06:37.423Z,99699.04
2019-02-08T21:09:41.991Z,99685.31
2019-02-08T21:12:49.627Z,99698.20
2019-02-08T21:15:53.993Z,99692.23
2019-02-08T21:18:58.797Z,99687.69
2019-02-08T21:22:03.355Z,99690.91
2019-02-08T21:25:09.457Z,99694.89
2019-02-08T21:28:13.822Z,99685.95
2019-02-08T21:31:18.384Z,99682.68
2019-02-08T21:34:22.722Z,99677.69
2019-02-08T21:37:27.073Z,99674.17
2019-02-08T21:40:31.399Z,99668.38
2019-02-08T21:43:35.736Z,99658.55
2019-02-08T21:46:40.113Z,99652.25
2019-02-08T21:49:44.540Z,99651.52
2019-02-08T21:52:48.823Z,99642.69
2019-02-08T21:55:53.137Z,99628.81
2019-02-08T21:58:57.656Z,99634.67
2019-02-08T22:02:01.948Z,99615.34
2019-02-08T22:05:07.269Z,99623.98
2019-02-08T22:08:14.291Z,99608.11
2019-02-08T22:11:18.605Z,99618.35
2019-02-08T22:14:22.882Z,99599.36
2019-02-08T22:17:27.390Z,99608.61
2019-02-08T22:20:32.011Z,99609.94
2019-02-08T22:23:36.312Z,99599.22
2019-02-08T22:26:40.600Z,99594.52
2019-02-08T22:29:44.935Z,99592.58
2019-02-08T22:32:49.972Z,99587.82
2019-02-08T22:35:57.127Z,99583.81
2019-02-08T22:39:01.413Z,99585.30
2019-02-08T22:42:05.752Z,99576.04
2019-02-08T22:45:16.839Z,99580.80
2019-02-08T22:48:21.154Z,99574.44
2019-02-08T22:51:25.470Z,99568.98
2019-02-08T22:54:29.989Z,99571.89
2019-02-08T22:57:34.263Z,99575.76
2019-02-08T23:01:26.804Z,99562.80
2019-02-08T23:04:31.080Z,99569.19
2019-02-08T23:07:35.355Z,99551.30
2019-02-08T23:10:40.050Z,99550.96
2019-02-08T23:13:44.331Z,99547.08
2019-02-08T23:16:48.605Z,99550.64
2019-02-08T23:19:53.003Z,99525.69
2019-02-08T23:22:57.264Z,99517.79
2019-02-08T23:26:02.426Z,99519.33
2019-02-08T23:29:06.847Z,99512.80
2019-02-08T23:32:11.164Z,99509.64
2019-02-08T23:35:15.620Z,99502.55
2019-02-08T23:38:19.896Z,99509.45
2019-02-08T23:41:24.261Z,99503.54
2019-02-08T23:44:28.541Z,99498.69
2019-02-08T23:47:32.816Z,99488.55
2019-02-08T23:50:37.077Z,99484.64
2019-02-08T23:53:41.375Z,99478.28
2019-02-08T23:56:46.132Z,99483.47
2019-02-08T23:59:50.553Z,99473.35
